sensor_id;sensor_type;location;lat;lon;timestamp;pressure;altitude;pressure_sealevel;temperature;humidity
80149;BME280;69473;42.426;26.644;2023-06-14T00:00:31;98647.72;;;16.51;69.76
80149;BME280;69473;42.426;26.644;2023-06-14T00:02:56;98652.69;;;16.32;70.00
80149;BME280;69473;42.426;26.644;2023-06-14T00:05:23;98651.34;;;16.19;69.93
80149;BME280;69473;42.426;26.644;2023-06-14T00:07:49;98655.75;;;16.18;70.38
80149;BME280;69473;42.426;26.644;2023-06-14T00:10:18;98643.09;;;16.32;69.68
80149;BME280;69473;42.426;26.644;2023-06-14T00:12:44;98648.00;;;16.42;69.66
80149;BME280;69473;42.426;26.644;2023-06-14T00:15:10;98648.81;;;16.44;68.75
80149;BME280;69473;42.426;26.644;2023-06-14T00:17:36;98641.28;;;16.34;69.25
80149;BME280;69473;42.426;26.644;2023-06-14T00:20:03;98635.94;;;16.37;68.96
80149;BME280;69473;42.426;26.644;2023-06-14T00:22:33;98644.72;;;16.36;69.32
80149;BME280;69473;42.426;26.644;2023-06-14T00:24:58;98639.88;;;16.24;69.93
80149;BME280;69473;42.426;26.644;2023-06-14T00:27:24;98640.50;;;16.32;69.61
80149;BME280;69473;42.426;26.644;2023-06-14T00:29:50;98634.44;;;16.30;69.07
80149;BME280;69473;42.426;26.644;2023-06-14T00:32:18;98639.22;;;16.17;69.29
80149;BME280;69473;42.426;26.644;2023-06-14T00:34:43;98634.53;;;16.27;69.14
80149;BME280;69473;42.426;26.644;2023-06-14T00:37:09;98639.97;;;16.21;69.29
80149;BME280;69473;42.426;26.644;2023-06-14T00:39:34;98635.59;;;16.22;69.56
80149;BME280;69473;42.426;26.644;2023-06-14T00:42:00;98634.25;;;16.08;69.95
80149;BME280;69473;42.426;26.644;2023-06-14T00:44:25;98629.59;;;16.18;70.02
80149;BME280;69473;42.426;26.644;2023-06-14T00:46:51;98632.31;;;16.15;70.17
80149;BME280;69473;42.426;26.644;2023-06-14T00:49:17;98634.09;;;16.13;70.00
80149;BME280;69473;42.426;26.644;2023-06-14T00:51:43;98621.03;;;16.13;70.07
80149;BME280;69473;42.426;26.644;2023-06-14T00:54:09;98630.25;;;15.97;70.72
80149;BME280;69473;42.426;26.644;2023-06-14T00:56:39;98631.97;;;15.98;70.66
80149;BME280;69473;42.426;26.644;2023-06-14T00:59:05;98629.97;;;16.06;71.03
80149;BME280;69473;42.426;26.644;2023-06-14T01:01:31;98628.84;;;15.86;70.85
80149;BME280;69473;42.426;26.644;2023-06-14T01:04:00;98627.63;;;15.98;70.80
80149;BME280;69473;42.426;26.644;2023-06-14T01:09:37;98629.34;;;15.98;70.73
80149;BME280;69473;42.426;26.644;2023-06-14T01:12:29;98640.53;;;16.03;70.83
80149;BME280;69473;42.426;26.644;2023-06-14T01:14:59;98633.97;;;15.89;71.29
80149;BME280;69473;42.426;26.644;2023-06-14T01:17:26;98635.84;;;15.84;71.42
80149;BME280;69473;42.426;26.644;2023-06-14T01:19:52;98633.88;;;15.92;71.01
80149;BME280;69473;42.426;26.644;2023-06-14T01:22:25;98636.22;;;16.02;70.76
80149;BME280;69473;42.426;26.644;2023-06-14T01:24:51;98635.94;;;15.81;71.81
80149;BME280;69473;42.426;26.644;2023-06-14T01:27:23;98636.22;;;15.72;72.59
80149;BME280;69473;42.426;26.644;2023-06-14T01:29:54;98628.47;;;15.69;72.26
80149;BME280;69473;42.426;26.644;2023-06-14T01:32:26;98632.69;;;15.73;71.97
80149;BME280;69473;42.426;26.644;2023-06-14T01:34:53;98627.28;;;15.79;71.61
80149;BME280;69473;42.426;26.644;2023-06-14T01:37:20;98627.00;;;15.88;71.26
80149;BME280;69473;42.426;26.644;2023-06-14T01:39:48;98635.75;;;15.87;71.10
80149;BME280;69473;42.426;26.644;2023-06-14T01:42:17;98640.34;;;15.79;70.78
80149;BME280;69473;42.426;26.644;2023-06-14T01:44:44;98635.50;;;15.65;71.38
80149;BME280;69473;42.426;26.644;2023-06-14T01:47:12;98641.59;;;15.66;70.88
80149;BME280;69473;42.426;26.644;2023-06-14T01:49:38;98638.91;;;15.69;71.42
80149;BME280;69473;42.426;26.644;2023-06-14T01:52:04;98629.44;;;15.65;70.99
80149;BME280;69473;42.426;26.644;2023-06-14T01:54:29;98633.03;;;15.61;71.65
80149;BME280;69473;42.426;26.644;2023-06-14T01:56:56;98624.06;;;15.71;71.35
80149;BME280;69473;42.426;26.644;2023-06-14T01:59:22;98632.69;;;15.73;71.18
80149;BME280;69473;42.426;26.644;2023-06-14T02:01:47;98639.81;;;15.68;70.76
80149;BME280;69473;42.426;26.644;2023-06-14T02:04:13;98640.06;;;15.59;71.53
80149;BME280;69473;42.426;26.644;2023-06-14T02:06:38;98637.31;;;15.32;72.16
80149;BME280;69473;42.426;26.644;2023-06-14T02:09:04;98642.34;;;15.38;72.05
80149;BME280;69473;42.426;26.644;2023-06-14T02:11:29;98643.22;;;15.39;72.07
80149;BME280;69473;42.426;26.644;2023-06-14T02:13:55;98640.56;;;15.40;71.93
80149;BME280;69473;42.426;26.644;2023-06-14T02:16:21;98636.88;;;15.47;71.29
80149;BME280;69473;42.426;26.644;2023-06-14T02:18:47;98638.22;;;15.31;72.29
80149;BME280;69473;42.426;26.644;2023-06-14T02:21:14;98633.72;;;15.36;71.21
80149;BME280;69473;42.426;26.644;2023-06-14T02:23:40;98645.72;;;15.43;71.79
80149;BME280;69473;42.426;26.644;2023-06-14T02:26:05;98639.03;;;15.33;72.27
80149;BME280;69473;42.426;26.644;2023-06-14T02:28:31;98642.69;;;15.26;72.15
80149;BME280;69473;42.426;26.644;2023-06-14T02:30:57;98651.84;;;15.42;71.46
80149;BME280;69473;42.426;26.644;2023-06-14T02:33:22;98642.44;;;15.66;70.29
80149;BME280;69473;42.426;26.644;2023-06-14T02:35:48;98653.09;;;15.59;70.29
80149;BME280;69473;42.426;26.644;2023-06-14T02:38:13;98655.72;;;15.59;70.61
80149;BME280;69473;42.426;26.644;2023-06-14T02:40:39;98660.78;;;15.65;70.07
80149;BME280;69473;42.426;26.644;2023-06-14T02:43:07;98656.88;;;15.48;70.43
80149;BME280;69473;42.426;26.644;2023-06-14T02:45:33;98658.59;;;15.50;70.51
80149;BME280;69473;42.426;26.644;2023-06-14T02:47:58;98664.63;;;15.20;71.81
80149;BME280;69473;42.426;26.644;2023-06-14T02:50:24;98662.63;;;15.30;71.10
80149;BME280;69473;42.426;26.644;2023-06-14T02:52:49;98661.72;;;15.62;70.10
80149;BME280;69473;42.426;26.644;2023-06-14T02:55:15;98654.50;;;15.72;70.04
80149;BME280;69473;42.426;26.644;2023-06-14T02:57:41;98669.06;;;15.48;70.90
80149;BME280;69473;42.426;26.644;2023-06-14T03:00:06;98662.56;;;15.63;70.64
80149;BME280;69473;42.426;26.644;2023-06-14T03:02:35;98664.63;;;15.52;70.78
80149;BME280;69473;42.426;26.644;2023-06-14T03:05:01;98663.75;;;15.51;71.21
80149;BME280;69473;42.426;26.644;2023-06-14T03:07:28;98665.59;;;15.47;71.53
80149;BME280;69473;42.426;26.644;2023-06-14T03:09:55;98663.84;;;15.48;71.52
80149;BME280;69473;42.426;26.644;2023-06-14T03:12:20;98671.38;;;15.59;71.01
80149;BME280;69473;42.426;26.644;2023-06-14T03:14:46;98664.56;;;15.55;71.21
80149;BME280;69473;42.426;26.644;2023-06-14T03:17:12;98665.03;;;15.69;70.94
80149;BME280;69473;42.426;26.644;2023-06-14T03:19:37;98660.28;;;15.83;69.99
80149;BME280;69473;42.426;26.644;2023-06-14T03:22:03;98654.59;;;15.99;69.61
80149;BME280;69473;42.426;26.644;2023-06-14T03:24:29;98653.78;;;16.25;68.72
80149;BME280;69473;42.426;26.644;2023-06-14T03:26:57;98648.00;;;16.42;68.37
80149;BME280;69473;42.426;26.644;2023-06-14T03:29:22;98660.16;;;16.71;67.66
80149;BME280;69473;42.426;26.644;2023-06-14T03:32:02;98660.53;;;16.87;67.53
80149;BME280;69473;42.426;26.644;2023-06-14T03:34:28;98654.63;;;17.06;65.94
80149;BME280;69473;42.426;26.644;2023-06-14T03:36:53;98651.25;;;17.03;66.91
80149;BME280;69473;42.426;26.644;2023-06-14T03:39:19;98657.00;;;16.88;68.16
80149;BME280;69473;42.426;26.644;2023-06-14T03:41:46;98664.03;;;17.12;66.95
80149;BME280;69473;42.426;26.644;2023-06-14T03:44:14;98664.63;;;17.20;66.77
80149;BME280;69473;42.426;26.644;2023-06-14T03:46:39;98661.06;;;17.46;64.51
80149;BME280;69473;42.426;26.644;2023-06-14T03:49:05;98652.84;;;17.57;64.40
80149;BME280;69473;42.426;26.644;2023-06-14T03:51:30;98660.84;;;17.77;63.64
80149;BME280;69473;42.426;26.644;2023-06-14T03:53:56;98659.78;;;18.05;64.53
80149;BME280;69473;42.426;26.644;2023-06-14T03:56:21;98658.47;;;18.17;63.64
80149;BME280;69473;42.426;26.644;2023-06-14T03:58:47;98659.25;;;18.41;63.10
80149;BME280;69473;42.426;26.644;2023-06-14T04:01:13;98651.41;;;18.63;62.37
80149;BME280;69473;42.426;26.644;2023-06-14T04:03:39;98662.28;;;18.76;62.31
80149;BME280;69473;42.426;26.644;2023-06-14T04:06:06;98665.66;;;18.78;63.38
80149;BME280;69473;42.426;26.644;2023-06-14T04:08:31;98661.09;;;19.03;61.01
80149;BME280;69473;42.426;26.644;2023-06-14T04:10:57;98667.59;;;18.95;61.15
80149;BME280;69473;42.426;26.644;2023-06-14T04:13:23;98670.16;;;18.96;62.02
80149;BME280;69473;42.426;26.644;2023-06-14T04:15:48;98669.81;;;18.83;62.47
80149;BME280;69473;42.426;26.644;2023-06-14T04:18:14;98674.22;;;18.61;63.08
80149;BME280;69473;42.426;26.644;2023-06-14T04:20:40;98674.94;;;18.64;63.92
80149;BME280;69473;42.426;26.644;2023-06-14T04:23:17;98674.16;;;19.05;62.44
80149;BME280;69473;42.426;26.644;2023-06-14T04:25:47;98676.59;;;18.89;63.75
80149;BME280;69473;42.426;26.644;2023-06-14T04:28:13;98683.03;;;19.23;62.80
80149;BME280;69473;42.426;26.644;2023-06-14T04:30:41;98680.91;;;18.90;63.00
80149;BME280;69473;42.426;26.644;2023-06-14T04:33:07;98675.03;;;19.26;61.15
80149;BME280;69473;42.426;26.644;2023-06-14T04:35:35;98667.81;;;19.10;60.69
80149;BME280;69473;42.426;26.644;2023-06-14T04:38:03;98675.13;;;19.43;60.79
80149;BME280;69473;42.426;26.644;2023-06-14T04:40:36;98680.53;;;19.40;60.67
80149;BME280;69473;42.426;26.644;2023-06-14T04:43:10;98681.72;;;19.53;60.37
80149;BME280;69473;42.426;26.644;2023-06-14T04:45:37;98685.88;;;19.78;60.88
80149;BME280;69473;42.426;26.644;2023-06-14T04:48:05;98684.72;;;19.65;60.20
80149;BME280;69473;42.426;26.644;2023-06-14T04:50:32;98686.00;;;19.75;59.96
80149;BME280;69473;42.426;26.644;2023-06-14T04:52:58;98687.41;;;20.02;57.62
80149;BME280;69473;42.426;26.644;2023-06-14T04:55:25;98688.94;;;19.48;58.68
80149;BME280;69473;42.426;26.644;2023-06-14T04:57:51;98703.41;;;19.98;58.83
80149;BME280;69473;42.426;26.644;2023-06-14T05:00:22;98698.56;;;20.07;58.40
80149;BME280;69473;42.426;26.644;2023-06-14T05:02:48;98704.66;;;20.65;56.36
80149;BME280;69473;42.426;26.644;2023-06-14T05:05:14;98695.88;;;21.01;55.33
80149;BME280;69473;42.426;26.644;2023-06-14T05:07:41;98700.81;;;21.24;54.47
80149;BME280;69473;42.426;26.644;2023-06-14T05:10:06;98712.50;;;21.37;54.38
80149;BME280;69473;42.426;26.644;2023-06-14T05:12:32;98708.50;;;21.46;54.49
80149;BME280;69473;42.426;26.644;2023-06-14T05:14:59;98709.44;;;21.62;54.04
80149;BME280;69473;42.426;26.644;2023-06-14T05:17:25;98718.16;;;21.80;52.69
80149;BME280;69473;42.426;26.644;2023-06-14T05:19:53;98720.47;;;21.86;53.21
80149;BME280;69473;42.426;26.644;2023-06-14T05:22:19;98711.56;;;22.05;51.20
80149;BME280;69473;42.426;26.644;2023-06-14T05:24:44;98717.75;;;22.21;51.38
80149;BME280;69473;42.426;26.644;2023-06-14T05:27:11;98723.56;;;22.28;50.66
80149;BME280;69473;42.426;26.644;2023-06-14T05:29:37;98719.13;;;22.28;51.93
80149;BME280;69473;42.426;26.644;2023-06-14T05:32:02;98731.03;;;22.51;50.68
80149;BME280;69473;42.426;26.644;2023-06-14T05:34:28;98726.25;;;22.74;50.11
80149;BME280;69473;42.426;26.644;2023-06-14T05:36:54;98733.41;;;22.88;50.58
80149;BME280;69473;42.426;26.644;2023-06-14T05:39:20;98730.28;;;23.11;49.50
80149;BME280;69473;42.426;26.644;2023-06-14T05:41:46;98740.16;;;23.23;49.17
80149;BME280;69473;42.426;26.644;2023-06-14T05:44:11;98742.22;;;23.18;49.93
80149;BME280;69473;42.426;26.644;2023-06-14T05:46:37;98742.00;;;23.37;48.63
80149;BME280;69473;42.426;26.644;2023-06-14T05:49:05;98745.06;;;23.29;49.46
80149;BME280;69473;42.426;26.644;2023-06-14T05:51:30;98744.84;;;23.48;48.54
80149;BME280;69473;42.426;26.644;2023-06-14T05:53:56;98748.03;;;23.69;48.26
80149;BME280;69473;42.426;26.644;2023-06-14T05:56:22;98748.03;;;23.69;48.67
80149;BME280;69473;42.426;26.644;2023-06-14T05:58:47;98750.59;;;23.71;48.59
80149;BME280;69473;42.426;26.644;2023-06-14T06:01:14;98754.75;;;23.89;46.89
80149;BME280;69473;42.426;26.644;2023-06-14T06:03:39;98755.25;;;23.96;47.88
80149;BME280;69473;42.426;26.644;2023-06-14T06:06:05;98765.53;;;24.15;47.83
80149;BME280;69473;42.426;26.644;2023-06-14T06:08:33;98763.72;;;24.01;47.44
80149;BME280;69473;42.426;26.644;2023-06-14T06:10:58;98762.28;;;24.38;47.55
80149;BME280;69473;42.426;26.644;2023-06-14T06:13:25;98755.66;;;24.60;44.80
80149;BME280;69473;42.426;26.644;2023-06-14T06:15:51;98758.66;;;24.95;45.23
80149;BME280;69473;42.426;26.644;2023-06-14T06:18:16;98761.47;;;25.21;43.77
80149;BME280;69473;42.426;26.644;2023-06-14T06:20:42;98751.72;;;25.34;43.35
80149;BME280;69473;42.426;26.644;2023-06-14T06:23:09;98760.47;;;25.62;43.48
80149;BME280;69473;42.426;26.644;2023-06-14T06:25:35;98761.97;;;26.17;42.51
80149;BME280;69473;42.426;26.644;2023-06-14T06:28:00;98752.66;;;26.61;40.86
80149;BME280;69473;42.426;26.644;2023-06-14T06:30:26;98760.75;;;27.31;38.14
80149;BME280;69473;42.426;26.644;2023-06-14T06:32:52;98756.47;;;28.33;38.49
80149;BME280;69473;42.426;26.644;2023-06-14T06:35:18;98754.31;;;29.04;36.19
80149;BME280;69473;42.426;26.644;2023-06-14T06:37:44;98761.59;;;29.55;35.15
80149;BME280;69473;42.426;26.644;2023-06-14T06:40:10;98762.31;;;29.57;35.46
80149;BME280;69473;42.426;26.644;2023-06-14T06:42:36;98758.91;;;29.55;34.38
80149;BME280;69473;42.426;26.644;2023-06-14T06:45:01;98761.66;;;29.86;33.23
80149;BME280;69473;42.426;26.644;2023-06-14T06:47:27;98758.13;;;29.43;32.74
80149;BME280;69473;42.426;26.644;2023-06-14T06:49:52;98762.38;;;30.19;33.24
80149;BME280;69473;42.426;26.644;2023-06-14T06:52:18;98755.56;;;30.76;31.50
80149;BME280;69473;42.426;26.644;2023-06-14T06:54:44;98757.78;;;30.71;30.23
80149;BME280;69473;42.426;26.644;2023-06-14T06:57:09;98757.78;;;30.71;31.43
80149;BME280;69473;42.426;26.644;2023-06-14T06:59:36;98746.31;;;30.99;30.76
80149;BME280;69473;42.426;26.644;2023-06-14T07:02:03;98747.16;;;31.48;30.89
80149;BME280;69473;42.426;26.644;2023-06-14T07:04:28;98755.72;;;32.28;30.07
80149;BME280;69473;42.426;26.644;2023-06-14T07:06:54;98758.16;;;32.49;30.33
80149;BME280;69473;42.426;26.644;2023-06-14T07:09:19;98751.97;;;32.49;30.68
80149;BME280;69473;42.426;26.644;2023-06-14T07:11:46;98746.25;;;33.07;28.75
80149;BME280;69473;42.426;26.644;2023-06-14T07:14:12;98756.50;;;32.94;29.11
80149;BME280;69473;42.426;26.644;2023-06-14T07:16:38;98748.69;;;32.55;30.02
80149;BME280;69473;42.426;26.644;2023-06-14T07:19:04;98750.56;;;33.00;28.12
80149;BME280;69473;42.426;26.644;2023-06-14T07:21:30;98751.53;;;33.34;28.07
80149;BME280;69473;42.426;26.644;2023-06-14T07:23:56;98747.16;;;32.98;29.10
80149;BME280;69473;42.426;26.644;2023-06-14T07:26:22;98744.06;;;31.24;31.26
80149;BME280;69473;42.426;26.644;2023-06-14T07:28:48;98757.78;;;28.16;35.15
80149;BME280;69473;42.426;26.644;2023-06-14T07:31:15;98760.44;;;27.47;37.82
80149;BME280;69473;42.426;26.644;2023-06-14T07:33:41;98756.59;;;27.16;37.83
80149;BME280;69473;42.426;26.644;2023-06-14T07:36:07;98759.63;;;26.99;38.44
80149;BME280;69473;42.426;26.644;2023-06-14T07:38:33;98759.69;;;26.86;39.00
80149;BME280;69473;42.426;26.644;2023-06-14T07:40:59;98760.19;;;26.91;38.46
80149;BME280;69473;42.426;26.644;2023-06-14T07:43:25;98765.88;;;26.86;38.78
80149;BME280;69473;42.426;26.644;2023-06-14T07:45:51;98755.22;;;26.86;38.89
80149;BME280;69473;42.426;26.644;2023-06-14T07:48:16;98748.97;;;26.51;39.25
80149;BME280;69473;42.426;26.644;2023-06-14T07:50:42;98758.78;;;26.12;39.24
80149;BME280;69473;42.426;26.644;2023-06-14T07:53:08;98751.97;;;26.33;39.03
80149;BME280;69473;42.426;26.644;2023-06-14T07:55:33;98760.66;;;26.35;40.33
80149;BME280;69473;42.426;26.644;2023-06-14T07:58:03;98754.22;;;26.76;40.25
80149;BME280;69473;42.426;26.644;2023-06-14T08:00:28;98753.72;;;26.95;39.55
80149;BME280;69473;42.426;26.644;2023-06-14T08:02:54;98757.81;;;26.75;38.42
80149;BME280;69473;42.426;26.644;2023-06-14T08:05:27;98761.44;;;26.74;38.68
80149;BME280;69473;42.426;26.644;2023-06-14T08:07:54;98755.00;;;26.89;38.53
80149;BME280;69473;42.426;26.644;2023-06-14T08:10:20;98739.94;;;27.25;38.29
80149;BME280;69473;42.426;26.644;2023-06-14T08:12:46;98740.63;;;27.16;37.64
80149;BME280;69473;42.426;26.644;2023-06-14T08:15:11;98746.53;;;27.32;38.92
80149;BME280;69473;42.426;26.644;2023-06-14T08:17:37;98747.06;;;27.71;37.49
80149;BME280;69473;42.426;26.644;2023-06-14T08:20:03;98743.41;;;27.50;36.10
80149;BME280;69473;42.426;26.644;2023-06-14T08:22:32;98752.59;;;26.98;38.05
80149;BME280;69473;42.426;26.644;2023-06-14T08:25:00;98749.41;;;27.29;37.75
80149;BME280;69473;42.426;26.644;2023-06-14T08:27:26;98750.31;;;26.93;38.11
80149;BME280;69473;42.426;26.644;2023-06-14T08:29:52;98753.00;;;26.56;38.70
80149;BME280;69473;42.426;26.644;2023-06-14T08:32:17;98745.88;;;26.44;38.64
80149;BME280;69473;42.426;26.644;2023-06-14T08:34:43;98745.41;;;26.63;38.72
80149;BME280;69473;42.426;26.644;2023-06-14T08:37:08;98736.81;;;27.20;38.00
80149;BME280;69473;42.426;26.644;2023-06-14T08:39:34;98728.84;;;27.31;37.30
80149;BME280;69473;42.426;26.644;2023-06-14T08:42:01;98730.59;;;27.55;37.41
80149;BME280;69473;42.426;26.644;2023-06-14T08:44:28;98728.81;;;27.67;38.16
80149;BME280;69473;42.426;26.644;2023-06-14T08:46:56;98729.19;;;27.73;36.84
80149;BME280;69473;42.426;26.644;2023-06-14T08:49:24;98726.97;;;27.45;37.55
80149;BME280;69473;42.426;26.644;2023-06-14T08:51:57;98722.53;;;27.21;36.71
80149;BME280;69473;42.426;26.644;2023-06-14T08:54:25;98734.34;;;26.69;38.78
80149;BME280;69473;42.426;26.644;2023-06-14T08:56:53;98731.41;;;26.85;38.04
80149;BME280;69473;42.426;26.644;2023-06-14T08:59:25;98726.25;;;26.94;37.55
80149;BME280;69473;42.426;26.644;2023-06-14T09:01:52;98732.94;;;26.76;37.32
80149;BME280;69473;42.426;26.644;2023-06-14T09:04:23;98725.06;;;27.58;37.22
80149;BME280;69473;42.426;26.644;2023-06-14T09:06:51;98730.22;;;27.95;36.46
80149;BME280;69473;42.426;26.644;2023-06-14T09:09:20;98735.31;;;27.16;37.41
80149;BME280;69473;42.426;26.644;2023-06-14T09:11:46;98729.00;;;26.32;39.45
80149;BME280;69473;42.426;26.644;2023-06-14T09:14:12;98728.75;;;27.09;38.52
80149;BME280;69473;42.426;26.644;2023-06-14T09:16:37;98719.88;;;27.21;37.76
80149;BME280;69473;42.426;26.644;2023-06-14T09:19:03;98717.44;;;27.18;37.43
80149;BME280;69473;42.426;26.644;2023-06-14T09:21:34;98728.84;;;27.31;38.16
80149;BME280;69473;42.426;26.644;2023-06-14T09:24:01;98727.69;;;27.47;37.35
80149;BME280;69473;42.426;26.644;2023-06-14T09:26:27;98727.47;;;27.72;37.52
80149;BME280;69473;42.426;26.644;2023-06-14T09:28:53;98734.34;;;28.10;36.17
80149;BME280;69473;42.426;26.644;2023-06-14T09:31:20;98734.06;;;28.02;36.50
80149;BME280;69473;42.426;26.644;2023-06-14T09:33:49;98730.91;;;27.97;36.46
80149;BME280;69473;42.426;26.644;2023-06-14T09:36:22;98731.59;;;27.65;37.34
80149;BME280;69473;42.426;26.644;2023-06-14T09:39:02;98732.09;;;27.70;37.71
80149;BME280;69473;42.426;26.644;2023-06-14T09:41:39;98743.88;;;27.44;38.25
80149;BME280;69473;42.426;26.644;2023-06-14T09:44:07;98739.16;;;27.47;38.15
80149;BME280;69473;42.426;26.644;2023-06-14T09:46:34;98741.19;;;27.32;38.16
80149;BME280;69473;42.426;26.644;2023-06-14T09:49:02;98739.69;;;27.17;38.80
80149;BME280;69473;42.426;26.644;2023-06-14T09:51:28;98731.53;;;27.43;37.86
80149;BME280;69473;42.426;26.644;2023-06-14T09:54:01;98739.00;;;27.37;38.84
80149;BME280;69473;42.426;26.644;2023-06-14T09:56:32;98738.25;;;27.24;38.11
80149;BME280;69473;42.426;26.644;2023-06-14T09:58:59;98739.38;;;27.09;37.84
80149;BME280;69473;42.426;26.644;2023-06-14T10:01:27;98738.84;;;27.04;38.69
80149;BME280;69473;42.426;26.644;2023-06-14T10:04:02;98730.88;;;27.04;38.83
80149;BME280;69473;42.426;26.644;2023-06-14T10:06:29;98730.81;;;27.40;36.74
80149;BME280;69473;42.426;26.644;2023-06-14T10:08:59;98736.97;;;27.88;37.84
80149;BME280;69473;42.426;26.644;2023-06-14T10:11:26;98727.75;;;28.37;36.36
80149;BME280;69473;42.426;26.644;2023-06-14T10:13:52;98731.16;;;27.94;36.60
80149;BME280;69473;42.426;26.644;2023-06-14T10:19:03;98720.00;;;27.07;37.42
80149;BME280;69473;42.426;26.644;2023-06-14T10:22:00;98727.13;;;26.71;38.23
80149;BME280;69473;42.426;26.644;2023-06-14T10:24:33;98723.28;;;27.34;37.13
80149;BME280;69473;42.426;26.644;2023-06-14T10:26:59;98713.25;;;27.96;36.29
80149;BME280;69473;42.426;26.644;2023-06-14T10:29:27;98713.22;;;28.41;35.11
80149;BME280;69473;42.426;26.644;2023-06-14T10:31:59;98723.66;;;28.44;35.55
80149;BME280;69473;42.426;26.644;2023-06-14T10:34:29;98727.03;;;28.46;34.38
80149;BME280;69473;42.426;26.644;2023-06-14T10:39:31;98719.28;;;28.54;34.49
80149;BME280;69473;42.426;26.644;2023-06-14T10:41:58;98715.16;;;28.61;34.57
80149;BME280;69473;42.426;26.644;2023-06-14T10:46:56;98726.19;;;27.78;36.70
80149;BME280;69473;42.426;26.644;2023-06-14T10:52:16;98725.56;;;28.19;35.86
80149;BME280;69473;42.426;26.644;2023-06-14T10:57:57;98719.47;;;28.73;33.53
80149;BME280;69473;42.426;26.644;2023-06-14T11:00:25;98718.31;;;28.32;33.22
80149;BME280;69473;42.426;26.644;2023-06-14T11:11:06;98709.56;;;27.74;35.27
80149;BME280;69473;42.426;26.644;2023-06-14T11:13:32;98707.44;;;27.79;36.62
80149;BME280;69473;42.426;26.644;2023-06-14T11:15:58;98709.34;;;28.56;33.87
80149;BME280;69473;42.426;26.644;2023-06-14T11:18:24;98697.31;;;29.05;33.94
80149;BME280;69473;42.426;26.644;2023-06-14T11:20:50;98696.13;;;28.98;33.23
80149;BME280;69473;42.426;26.644;2023-06-14T11:23:16;98698.47;;;28.48;33.64
80149;BME280;69473;42.426;26.644;2023-06-14T11:25:42;98689.50;;;28.26;34.64
80149;BME280;69473;42.426;26.644;2023-06-14T11:28:07;98701.63;;;28.08;34.93
80149;BME280;69473;42.426;26.644;2023-06-14T11:30:33;98704.03;;;28.45;34.99
80149;BME280;69473;42.426;26.644;2023-06-14T11:32:59;98701.97;;;28.92;33.78
80149;BME280;69473;42.426;26.644;2023-06-14T11:35:25;98684.16;;;28.81;34.17
80149;BME280;69473;42.426;26.644;2023-06-14T11:37:55;98690.69;;;29.20;32.92
80149;BME280;69473;42.426;26.644;2023-06-14T11:40:24;98695.25;;;28.65;33.74
80149;BME280;69473;42.426;26.644;2023-06-14T11:43:00;98694.09;;;28.36;34.98
80149;BME280;69473;42.426;26.644;2023-06-14T11:45:27;98701.59;;;28.53;34.20
80149;BME280;69473;42.426;26.644;2023-06-14T11:47:57;98693.81;;;28.61;34.76
80149;BME280;69473;42.426;26.644;2023-06-14T11:50:23;98694.56;;;28.52;35.45
80149;BME280;69473;42.426;26.644;2023-06-14T11:52:59;98697.13;;;28.42;35.11
80149;BME280;69473;42.426;26.644;2023-06-14T11:55:41;98695.81;;;28.14;34.51
80149;BME280;69473;42.426;26.644;2023-06-14T11:58:10;98689.50;;;28.26;35.80
80149;BME280;69473;42.426;26.644;2023-06-14T12:00:37;98685.47;;;28.87;34.28
80149;BME280;69473;42.426;26.644;2023-06-14T12:03:03;98693.06;;;29.35;34.15
80149;BME280;69473;42.426;26.644;2023-06-14T12:05:29;98693.06;;;29.35;33.34
80149;BME280;69473;42.426;26.644;2023-06-14T12:07:59;98685.22;;;29.01;34.10
80149;BME280;69473;42.426;26.644;2023-06-14T12:10:26;98681.31;;;28.73;33.93
80149;BME280;69473;42.426;26.644;2023-06-14T12:12:59;98677.56;;;28.64;34.59
80149;BME280;69473;42.426;26.644;2023-06-14T12:15:28;98680.22;;;28.75;33.78
80149;BME280;69473;42.426;26.644;2023-06-14T12:17:54;98676.94;;;28.06;34.64
80149;BME280;69473;42.426;26.644;2023-06-14T12:20:20;98680.31;;;28.08;35.92
80149;BME280;69473;42.426;26.644;2023-06-14T12:22:54;98682.72;;;28.22;35.51
80149;BME280;69473;42.426;26.644;2023-06-14T12:25:33;98670.41;;;27.99;35.64
80149;BME280;69473;42.426;26.644;2023-06-14T12:28:08;98687.72;;;27.93;35.93
80149;BME280;69473;42.426;26.644;2023-06-14T12:30:35;98685.88;;;27.71;36.94
80149;BME280;69473;42.426;26.644;2023-06-14T12:33:02;98670.34;;;27.54;36.20
80149;BME280;69473;42.426;26.644;2023-06-14T12:35:27;98676.91;;;27.61;36.14
80149;BME280;69473;42.426;26.644;2023-06-14T12:37:53;98670.03;;;27.70;35.97
80149;BME280;69473;42.426;26.644;2023-06-14T12:40:19;98670.63;;;27.73;36.82
80149;BME280;69473;42.426;26.644;2023-06-14T12:42:45;98664.84;;;27.79;35.54
80149;BME280;69473;42.426;26.644;2023-06-14T12:45:12;98671.38;;;27.86;36.34
80149;BME280;69473;42.426;26.644;2023-06-14T12:47:38;98656.13;;;28.00;36.87
80149;BME280;69473;42.426;26.644;2023-06-14T12:50:05;98667.50;;;28.13;35.99
80149;BME280;69473;42.426;26.644;2023-06-14T12:52:30;98656.13;;;28.11;36.32
80149;BME280;69473;42.426;26.644;2023-06-14T12:54:56;98659.69;;;28.44;36.17
80149;BME280;69473;42.426;26.644;2023-06-14T12:57:22;98651.44;;;28.58;35.48
80149;BME280;69473;42.426;26.644;2023-06-14T12:59:48;98651.56;;;28.34;35.66
80149;BME280;69473;42.426;26.644;2023-06-14T13:02:16;98651.91;;;27.86;35.49
80149;BME280;69473;42.426;26.644;2023-06-14T13:04:41;98651.03;;;27.74;36.56
80149;BME280;69473;42.426;26.644;2023-06-14T13:07:07;98656.59;;;27.94;35.99
80149;BME280;69473;42.426;26.644;2023-06-14T13:09:33;98653.84;;;27.95;36.41
80149;BME280;69473;42.426;26.644;2023-06-14T13:11:58;98644.75;;;27.86;35.76
80149;BME280;69473;42.426;26.644;2023-06-14T13:14:24;98648.41;;;27.85;36.57